createdAt,value
2018-10-02T00:01:24.359Z,10.30
2018-10-02T00:03:52.591Z,10.30
2018-10-02T00:06:20.837Z,10.30
2018-10-02T00:08:49.066Z,10.30
2018-10-02T00:11:22.547Z,10.40
2018-10-02T00:13:56.199Z,10.40
2018-10-02T00:16:24.428Z,10.30
2018-10-02T00:18:52.680Z,10.40
2018-10-02T00:21:20.923Z,10.40
2018-10-02T00:23:49.134Z,10.40
2018-10-02T00:26:17.344Z,10.40
2018-10-02T00:28:45.546Z,10.40
2018-10-02T00:31:13.813Z,10.30
2018-10-02T00:33:42.159Z,10.30
2018-10-02T00:36:10.412Z,10.30
2018-10-02T00:38:38.630Z,10.20
2018-10-02T00:41:06.871Z,10.20
2018-10-02T00:43:35.070Z,10.20
2018-10-02T00:46:03.427Z,10.10
2018-10-02T00:48:31.655Z,10.10
2018-10-02T00:50:59.883Z,10.10
2018-10-02T00:53:30.922Z,10.10
2018-10-02T00:55:59.269Z,10.00
2018-10-02T00:58:27.487Z,10.00
2018-10-02T01:00:55.719Z,10.00
2018-10-02T01:03:24.186Z,10.00
2018-10-02T01:05:52.426Z,10.00
2018-10-02T01:08:20.647Z,10.00
2018-10-02T01:10:48.931Z,10.00
2018-10-02T01:13:17.162Z,10.00
2018-10-02T01:15:45.411Z,10.00
2018-10-02T01:18:13.638Z,10.00
2018-10-02T01:20:41.851Z,10.00
2018-10-02T01:23:10.079Z,10.00
2018-10-02T01:25:38.469Z,10.00
2018-10-02T01:28:06.950Z,10.00
2018-10-02T01:30:35.179Z,10.00
2018-10-02T01:33:03.394Z,10.00
2018-10-02T01:35:31.668Z,10.00
2018-10-02T01:37:59.878Z,10.00
2018-10-02T01:40:28.112Z,10.00
2018-10-02T01:42:56.363Z,10.00
2018-10-02T01:45:24.915Z,10.00
2018-10-02T01:47:53.151Z,10.00
2018-10-02T01:50:21.383Z,10.00
2018-10-02T01:52:49.679Z,10.00
2018-10-02T01:55:17.968Z,10.00
2018-10-02T01:57:46.191Z,10.00
2018-10-02T02:00:14.411Z,10.00
2018-10-02T02:02:42.640Z,10.10
2018-10-02T02:05:10.843Z,10.00
2018-10-02T02:07:39.107Z,10.10
2018-10-02T02:10:07.349Z,10.10
2018-10-02T02:12:35.570Z,10.10
2018-10-02T02:15:04.382Z,10.10
2018-10-02T02:17:32.624Z,10.10
2018-10-02T02:20:00.838Z,10.10
2018-10-02T02:22:29.044Z,10.10
2018-10-02T02:24:57.311Z,10.00
2018-10-02T02:27:25.548Z,10.10
2018-10-02T02:29:53.798Z,10.00
2018-10-02T02:32:22.024Z,10.10
2018-10-02T02:34:50.254Z,10.10
2018-10-02T02:37:18.476Z,10.10
2018-10-02T02:39:46.699Z,10.10
2018-10-02T02:42:14.955Z,10.10
2018-10-02T02:44:43.170Z,10.10
2018-10-02T02:47:16.783Z,10.00
2018-10-02T02:49:50.297Z,10.10
2018-10-02T02:52:20.607Z,10.00
2018-10-02T02:54:48.903Z,10.00
2018-10-02T02:57:17.128Z,10.00
2018-10-02T02:59:45.431Z,10.00
2018-10-02T03:02:13.630Z,10.00
2018-10-02T03:04:41.863Z,10.00
2018-10-02T03:07:10.111Z,10.00
2018-10-02T03:09:38.315Z,9.90
2018-10-02T03:12:06.559Z,9.90
2018-10-02T03:14:34.758Z,9.90
2018-10-02T03:17:03.016Z,9.90
2018-10-02T03:19:31.271Z,10.00
2018-10-02T03:21:59.481Z,10.00
2018-10-02T03:24:27.803Z,10.00
2018-10-02T03:26:55.974Z,10.00
2018-10-02T03:29:24.176Z,10.00
2018-10-02T03:31:52.390Z,9.90
2018-10-02T03:34:20.623Z,9.90
2018-10-02T03:36:48.869Z,9.90
2018-10-02T03:39:17.091Z,10.00
2018-10-02T03:41:45.271Z,9.90
2018-10-02T03:44:13.437Z,9.90
2018-10-02T03:46:41.615Z,9.90
2018-10-02T03:49:09.807Z,9.90
2018-10-02T03:51:38.006Z,9.90
2018-10-02T03:54:06.540Z,9.90
2018-10-02T03:56:34.738Z,9.90
2018-10-02T03:59:03.127Z,9.90
2018-10-02T04:01:31.351Z,9.90
2018-10-02T04:03:59.518Z,9.90
2018-10-02T04:06:27.741Z,9.90
2018-10-02T04:08:55.953Z,10.00
2018-10-02T04:11:24.158Z,10.00
2018-10-02T04:13:52.451Z,10.00
2018-10-02T04:16:20.655Z,10.00
2018-10-02T04:18:48.847Z,10.00
2018-10-02T04:21:21.275Z,10.00
2018-10-02T04:23:49.543Z,10.00
2018-10-02T04:26:17.704Z,10.00
2018-10-02T04:28:45.935Z,10.00
2018-10-02T04:31:14.165Z,10.00
2018-10-02T04:33:42.408Z,10.10
2018-10-02T04:36:10.574Z,10.00
2018-10-02T04:38:38.787Z,10.00
2018-10-02T04:41:07.039Z,10.00
2018-10-02T04:43:35.278Z,10.00
2018-10-02T04:46:03.455Z,10.10
2018-10-02T04:48:31.757Z,10.10
2018-10-02T04:50:59.934Z,10.10
2018-10-02T04:53:28.130Z,10.10
2018-10-02T04:55:56.368Z,10.10
2018-10-02T04:58:24.506Z,10.10
2018-10-02T05:00:52.730Z,10.10
2018-10-02T05:03:20.935Z,10.20
2018-10-02T05:05:49.108Z,10.20
2018-10-02T05:08:17.455Z,10.20
2018-10-02T05:10:45.566Z,10.20
2018-10-02T05:13:13.806Z,10.20
2018-10-02T05:15:42.279Z,10.20
2018-10-02T05:18:10.496Z,10.20
2018-10-02T05:20:38.691Z,10.20
2018-10-02T05:23:06.886Z,10.20
2018-10-02T05:25:35.108Z,10.20
2018-10-02T05:28:03.634Z,10.20
2018-10-02T05:30:31.854Z,10.20
2018-10-02T05:33:00.044Z,10.20
2018-10-02T05:35:28.240Z,10.20
2018-10-02T05:37:56.443Z,10.20
2018-10-02T05:40:24.683Z,10.20
2018-10-02T05:42:52.894Z,10.20
2018-10-02T05:45:21.483Z,10.20
2018-10-02T05:47:49.664Z,10.20
2018-10-02T05:50:17.850Z,10.10
2018-10-02T05:52:46.049Z,10.10
2018-10-02T05:55:14.236Z,10.10
2018-10-02T05:57:42.427Z,10.10
2018-10-02T06:00:10.713Z,10.10
2018-10-02T06:02:38.944Z,10.10
2018-10-02T06:05:07.175Z,10.10
2018-10-02T06:07:35.404Z,10.10
2018-10-02T06:10:03.703Z,10.10
2018-10-02T06:12:31.842Z,10.10
2018-10-02T06:15:00.169Z,10.10
2018-10-02T06:17:28.419Z,10.10
2018-10-02T06:19:56.627Z,10.10
2018-10-02T06:22:24.808Z,10.10
2018-10-02T06:24:53.007Z,10.10
2018-10-02T06:27:21.235Z,10.10
2018-10-02T06:29:49.447Z,10.10
2018-10-02T06:32:17.652Z,10.20
2018-10-02T06:34:45.859Z,10.20
2018-10-02T06:37:14.071Z,10.20
2018-10-02T06:39:42.319Z,10.20
2018-10-02T06:42:10.539Z,10.30
2018-10-02T06:44:38.973Z,10.20
2018-10-02T06:47:07.089Z,10.20
2018-10-02T06:49:35.319Z,10.30
2018-10-02T06:52:03.574Z,10.30
2018-10-02T06:54:31.882Z,10.30
2018-10-02T06:57:00.159Z,10.30
2018-10-02T06:59:28.312Z,10.40
2018-10-02T07:01:56.514Z,10.40
2018-10-02T07:04:24.732Z,10.40
2018-10-02T07:06:53.013Z,10.40
2018-10-02T07:09:21.155Z,10.50
2018-10-02T07:11:49.376Z,10.50
2018-10-02T07:14:17.781Z,10.50
2018-10-02T07:16:45.971Z,10.60
2018-10-02T07:19:14.229Z,10.60
2018-10-02T07:21:42.535Z,10.60
2018-10-02T07:24:10.740Z,10.60
2018-10-02T07:26:39.039Z,10.70
2018-10-02T07:29:07.194Z,10.70
2018-10-02T07:31:35.416Z,10.70
2018-10-02T07:34:03.703Z,10.80
2018-10-02T07:36:31.918Z,10.80
2018-10-02T07:39:00.164Z,10.90
2018-10-02T07:41:28.363Z,10.90
2018-10-02T07:43:56.699Z,11.00
2018-10-02T07:46:24.915Z,11.00
2018-10-02T07:48:53.130Z,11.00
2018-10-02T07:51:21.356Z,11.00
2018-10-02T07:53:49.582Z,11.10
2018-10-02T07:56:18.314Z,11.10
2018-10-02T07:58:46.514Z,11.10
2018-10-02T08:01:14.707Z,11.10
2018-10-02T08:03:42.943Z,11.20
2018-10-02T08:06:11.216Z,11.20
2018-10-02T08:08:39.444Z,11.20
2018-10-02T08:11:07.555Z,11.30
2018-10-02T08:13:35.905Z,11.30
2018-10-02T08:16:04.080Z,11.40
2018-10-02T08:18:32.303Z,11.30
2018-10-02T08:21:00.576Z,11.30
2018-10-02T08:23:29.460Z,11.40
2018-10-02T08:25:57.667Z,11.40
2018-10-02T08:28:26.015Z,11.50
2018-10-02T08:30:54.250Z,11.70
2018-10-02T08:33:22.457Z,11.80
2018-10-02T08:35:50.877Z,11.80
2018-10-02T08:38:18.975Z,11.80
2018-10-02T08:40:47.179Z,11.90
2018-10-02T08:43:15.393Z,11.90
2018-10-02T08:45:43.633Z,11.90
2018-10-02T08:48:11.831Z,11.80
2018-10-02T08:50:40.092Z,11.70
2018-10-02T08:53:08.276Z,11.70
2018-10-02T08:55:36.536Z,11.70
2018-10-02T08:58:04.739Z,11.80
2018-10-02T09:00:33.023Z,11.90
2018-10-02T09:03:01.315Z,11.90
2018-10-02T09:05:29.642Z,12.00
2018-10-02T09:07:57.854Z,12.10
2018-10-02T09:10:26.066Z,12.10
2018-10-02T09:12:54.347Z,12.10
2018-10-02T09:15:22.606Z,12.00
2018-10-02T09:17:50.762Z,12.00
2018-10-02T09:20:18.955Z,12.00
2018-10-02T09:22:47.188Z,12.00
2018-10-02T09:25:15.367Z,12.00
2018-10-02T09:27:43.682Z,12.10
2018-10-02T09:30:17.171Z,12.10
2018-10-02T09:32:50.547Z,12.20
2018-10-02T09:35:24.157Z,12.30
2018-10-02T09:37:57.747Z,12.30
2018-10-02T09:40:31.388Z,12.30
2018-10-02T09:43:11.436Z,12.40
2018-10-02T09:45:39.710Z,12.40
2018-10-02T09:48:09.035Z,12.40
2018-10-02T09:50:37.379Z,12.40
2018-10-02T09:53:05.911Z,12.40
2018-10-02T09:55:34.380Z,12.40
2018-10-02T09:58:03.100Z,12.40
2018-10-02T10:00:36.761Z,12.40
2018-10-02T10:03:05.165Z,12.50
2018-10-02T10:05:33.349Z,12.50
2018-10-02T10:08:01.548Z,12.60
2018-10-02T10:10:30.143Z,12.80
2018-10-02T10:12:58.312Z,12.80
2018-10-02T10:15:26.560Z,12.90
2018-10-02T10:17:54.755Z,13.00
2018-10-02T10:20:22.995Z,13.00
2018-10-02T10:22:51.312Z,13.00
2018-10-02T10:25:19.540Z,13.00
2018-10-02T10:27:47.720Z,13.00
2018-10-02T10:30:15.959Z,13.00
2018-10-02T10:32:44.195Z,13.00
2018-10-02T10:35:13.500Z,13.10
2018-10-02T10:37:41.699Z,13.20
2018-10-02T10:40:09.951Z,13.30
2018-10-02T10:42:38.167Z,13.30
2018-10-02T10:45:06.420Z,13.30
2018-10-02T10:47:34.690Z,13.40
2018-10-02T10:50:02.844Z,13.40
2018-10-02T10:52:31.172Z,13.40
2018-10-02T10:55:10.683Z,13.50
2018-10-02T10:57:38.895Z,13.60
2018-10-02T11:00:07.288Z,13.70
2018-10-02T11:02:35.515Z,14.00
2018-10-02T11:05:03.796Z,14.10
2018-10-02T11:07:31.988Z,14.10
2018-10-02T11:10:00.206Z,14.10
2018-10-02T11:12:28.404Z,14.00
2018-10-02T11:14:56.776Z,13.90
2018-10-02T11:17:25.021Z,13.90
2018-10-02T11:19:53.216Z,13.90
2018-10-02T11:22:21.439Z,14.00
2018-10-02T11:24:49.651Z,14.10
2018-10-02T11:27:17.834Z,14.40
2018-10-02T11:29:46.066Z,14.60
2018-10-02T11:32:14.270Z,14.70
2018-10-02T11:34:42.496Z,14.90
2018-10-02T11:37:10.736Z,14.90
2018-10-02T11:39:38.931Z,14.80
2018-10-02T11:42:07.145Z,14.90
2018-10-02T11:44:35.525Z,14.90
2018-10-02T11:47:03.689Z,14.90
2018-10-02T11:49:31.963Z,14.90
2018-10-02T11:52:00.271Z,14.80
2018-10-02T11:54:28.483Z,14.90
2018-10-02T11:56:56.697Z,15.00
2018-10-02T11:59:24.904Z,15.10
2018-10-02T12:01:53.077Z,15.20
2018-10-02T12:04:21.313Z,15.20
2018-10-02T12:06:49.567Z,15.30
2018-10-02T12:09:17.718Z,15.30
2018-10-02T12:11:45.911Z,15.30
2018-10-02T12:14:14.396Z,15.40
2018-10-02T12:16:42.519Z,15.50
2018-10-02T12:19:10.718Z,15.60
2018-10-02T12:21:38.999Z,15.90
2018-10-02T12:24:10.063Z,16.10
2018-10-02T12:26:38.435Z,16.10
2018-10-02T12:29:07.027Z,16.20
2018-10-02T12:31:35.872Z,16.30
2018-10-02T12:34:04.058Z,16.30
2018-10-02T12:36:32.259Z,16.30
2018-10-02T12:39:00.626Z,16.20
2018-10-02T12:41:28.830Z,16.20
2018-10-02T12:43:57.237Z,16.10
2018-10-02T12:46:25.430Z,16.00
2018-10-02T12:48:53.657Z,16.10
2018-10-02T12:51:21.846Z,16.30
2018-10-02T12:53:50.056Z,16.20
2018-10-02T12:56:18.234Z,16.20
2018-10-02T12:58:46.443Z,16.20
2018-10-02T13:01:14.653Z,16.20
2018-10-02T13:03:43.084Z,16.40
2018-10-02T13:06:11.287Z,16.60
2018-10-02T13:08:39.511Z,16.90
2018-10-02T13:11:07.742Z,17.30
2018-10-02T13:13:36.355Z,17.50
2018-10-02T13:16:04.571Z,17.30
2018-10-02T13:18:32.787Z,17.50
2018-10-02T13:21:00.995Z,17.80
2018-10-02T13:23:29.221Z,18.10
2018-10-02T13:25:57.391Z,19.00
2018-10-02T13:28:25.571Z,19.60
2018-10-02T13:30:53.793Z,20.60
2018-10-02T13:33:21.993Z,21.50
2018-10-02T13:35:50.291Z,22.30
2018-10-02T13:38:18.537Z,22.50
2018-10-02T13:40:46.715Z,22.10
2018-10-02T13:43:14.899Z,21.40
2018-10-02T13:45:43.095Z,20.80
2018-10-02T13:48:11.339Z,21.50
2018-10-02T13:50:39.573Z,23.30
2018-10-02T13:53:07.764Z,25.10
2018-10-02T13:55:35.987Z,25.70
2018-10-02T13:58:04.215Z,25.40
2018-10-02T14:00:32.439Z,24.30
2018-10-02T14:03:01.044Z,23.50
2018-10-02T14:05:30.211Z,23.80
2018-10-02T14:07:58.386Z,25.20
2018-10-02T14:10:26.580Z,26.90
2018-10-02T14:12:54.807Z,28.40
2018-10-02T14:15:23.020Z,29.00
2018-10-02T14:17:51.240Z,28.50
2018-10-02T14:20:19.442Z,27.80
2018-10-02T14:22:47.627Z,27.30
2018-10-02T14:25:15.839Z,27.90
2018-10-02T14:27:44.054Z,29.30
2018-10-02T14:30:12.254Z,30.60
2018-10-02T14:32:40.444Z,31.30
2018-10-02T14:35:08.679Z,31.10
2018-10-02T14:37:36.879Z,29.90
2018-10-02T14:40:05.103Z,28.90
2018-10-02T14:42:33.306Z,27.30
2018-10-02T14:45:01.527Z,25.60
2018-10-02T14:47:29.754Z,24.10
2018-10-02T14:49:57.931Z,22.90
2018-10-02T14:52:26.200Z,22.10
2018-10-02T14:54:54.395Z,21.50
2018-10-02T14:57:22.603Z,21.10
2018-10-02T14:59:50.815Z,20.60
2018-10-02T15:02:19.018Z,21.10
2018-10-02T15:04:47.417Z,22.40
2018-10-02T15:07:15.572Z,24.00
2018-10-02T15:09:43.784Z,25.20
2018-10-02T15:12:12.060Z,26.30
2018-10-02T15:14:40.231Z,27.30
2018-10-02T15:17:08.524Z,27.70
2018-10-02T15:19:36.742Z,27.80
2018-10-02T15:22:04.939Z,28.10
2018-10-02T15:24:34.946Z,28.80
2018-10-02T15:27:03.183Z,29.60
2018-10-02T15:29:31.358Z,30.10
2018-10-02T15:31:59.594Z,30.20
2018-10-02T15:34:27.919Z,30.50
2018-10-02T15:36:56.123Z,30.80
2018-10-02T15:39:24.526Z,30.60
2018-10-02T15:41:52.718Z,30.30
2018-10-02T15:44:20.915Z,30.30
2018-10-02T15:46:49.164Z,30.30
2018-10-02T15:49:17.343Z,30.00
2018-10-02T15:51:45.491Z,29.60
2018-10-02T15:54:13.693Z,29.40
2018-10-02T15:56:41.921Z,29.10
2018-10-02T15:59:10.100Z,28.60
2018-10-02T16:01:38.339Z,28.20
2018-10-02T16:04:06.695Z,27.90
2018-10-02T16:06:34.959Z,28.10
2018-10-02T16:09:03.740Z,27.50
2018-10-02T16:11:32.135Z,26.20
2018-10-02T16:14:00.266Z,25.60
2018-10-02T16:16:28.855Z,25.00
2018-10-02T16:18:57.066Z,24.10
2018-10-02T16:21:25.301Z,23.00
2018-10-02T16:23:53.567Z,22.10
2018-10-02T16:26:21.827Z,21.30
2018-10-02T16:28:49.995Z,20.70
2018-10-02T16:31:18.221Z,20.40
2018-10-02T16:33:46.579Z,19.90
2018-10-02T16:36:14.803Z,19.50
2018-10-02T16:38:42.991Z,19.20
2018-10-02T16:41:17.807Z,18.90
2018-10-02T16:43:45.995Z,18.60
2018-10-02T16:46:14.210Z,18.30
2018-10-02T16:48:42.479Z,18.10
2018-10-02T16:51:10.688Z,17.90
2018-10-02T16:53:39.013Z,17.70
2018-10-02T16:56:07.249Z,17.50
2018-10-02T16:58:36.346Z,17.30
2018-10-02T17:01:04.962Z,17.20
2018-10-02T17:03:33.305Z,17.00
2018-10-02T17:06:01.491Z,16.90
2018-10-02T17:08:29.735Z,16.80
2018-10-02T17:10:57.922Z,16.70
2018-10-02T17:13:26.131Z,16.60
2018-10-02T17:15:54.309Z,16.50
2018-10-02T17:18:22.499Z,16.40
2018-10-02T17:20:50.825Z,16.30
2018-10-02T17:23:18.973Z,16.20
2018-10-02T17:25:47.150Z,16.20
2018-10-02T17:28:15.378Z,16.10
2018-10-02T17:30:43.786Z,16.00
2018-10-02T17:33:12.007Z,15.90
2018-10-02T17:35:40.271Z,15.80
2018-10-02T17:38:08.430Z,15.80
2018-10-02T17:40:36.704Z,15.70
2018-10-02T17:43:04.894Z,15.70
2018-10-02T17:45:33.059Z,15.60
2018-10-02T17:48:01.266Z,15.50
2018-10-02T17:50:29.612Z,15.50
2018-10-02T17:52:58.544Z,15.40
2018-10-02T17:55:26.943Z,15.40
2018-10-02T17:57:55.251Z,15.30
2018-10-02T18:00:23.755Z,15.30
2018-10-02T18:02:52.057Z,15.20
2018-10-02T18:05:20.362Z,15.20
2018-10-02T18:07:48.620Z,15.20
2018-10-02T18:10:16.815Z,15.10
2018-10-02T18:12:45.024Z,15.00
2018-10-02T18:15:13.202Z,15.00
2018-10-02T18:17:42.069Z,15.00
2018-10-02T18:20:10.264Z,15.00
2018-10-02T18:22:38.492Z,15.00
2018-10-02T18:25:06.877Z,15.00
2018-10-02T18:27:35.181Z,14.90
2018-10-02T18:30:03.305Z,14.90
2018-10-02T18:32:31.480Z,14.90
2018-10-02T18:34:59.658Z,14.90
2018-10-02T18:37:27.932Z,14.90
2018-10-02T18:39:56.183Z,14.90
2018-10-02T18:42:24.768Z,14.80
2018-10-02T18:44:53.002Z,14.80
2018-10-02T18:47:21.174Z,14.70
2018-10-02T18:49:49.620Z,14.70
2018-10-02T18:52:18.276Z,14.70
2018-10-02T18:54:46.590Z,14.70
2018-10-02T18:57:14.760Z,14.70
2018-10-02T18:59:43.191Z,14.70
2018-10-02T19:02:11.773Z,14.70
2018-10-02T19:04:40.660Z,14.60
2018-10-02T19:07:09.118Z,14.70
2018-10-02T19:09:37.916Z,14.70
2018-10-02T19:12:15.626Z,14.70
2018-10-02T19:14:44.237Z,14.60
2018-10-02T19:17:12.760Z,14.60
2018-10-02T19:19:46.817Z,14.60
2018-10-02T19:22:15.423Z,14.50
2018-10-02T19:24:44.114Z,14.50
2018-10-02T19:27:12.462Z,14.40
2018-10-02T19:29:41.447Z,14.40
2018-10-02T19:32:16.425Z,14.50
2018-10-02T19:34:46.382Z,14.50
2018-10-02T19:37:21.463Z,14.40
2018-10-02T19:39:49.706Z,14.40
2018-10-02T19:42:17.883Z,14.30
2018-10-02T19:44:46.414Z,14.20
2018-10-02T19:47:14.701Z,14.10
2018-10-02T19:49:43.523Z,14.10
2018-10-02T19:52:13.275Z,14.00
2018-10-02T19:54:41.907Z,14.00
2018-10-02T19:57:16.037Z,14.00
2018-10-02T19:59:44.328Z,13.90
2018-10-02T20:02:12.808Z,13.90
2018-10-02T20:04:41.903Z,13.90
2018-10-02T20:07:10.103Z,13.80
2018-10-02T20:09:38.566Z,13.80
2018-10-02T20:12:07.783Z,13.80
2018-10-02T20:14:37.250Z,13.80
2018-10-02T20:17:06.021Z,13.80
2018-10-02T20:19:34.907Z,13.70
2018-10-02T20:22:03.713Z,13.70
2018-10-02T20:24:32.347Z,13.70
2018-10-02T20:27:03.881Z,13.70
2018-10-02T20:29:32.914Z,13.70
2018-10-02T20:32:01.322Z,13.70
2018-10-02T20:34:30.164Z,13.70
2018-10-02T20:36:58.949Z,13.70
2018-10-02T20:39:27.451Z,13.70
2018-10-02T20:41:55.769Z,13.70
2018-10-02T20:44:24.581Z,13.80
2018-10-02T20:46:53.906Z,13.90
2018-10-02T20:49:22.743Z,14.00
2018-10-02T20:51:51.115Z,14.10
2018-10-02T20:54:19.315Z,14.20
2018-10-02T20:56:47.511Z,14.20
2018-10-02T20:59:15.674Z,14.30
2018-10-02T21:01:43.895Z,14.30
2018-10-02T21:04:12.080Z,14.30
2018-10-02T21:06:40.295Z,14.30
2018-10-02T21:09:10.798Z,14.30
2018-10-02T21:11:39.027Z,14.30
2018-10-02T21:14:07.364Z,14.30
2018-10-02T21:16:35.568Z,14.30
2018-10-02T21:19:03.791Z,14.20
2018-10-02T21:21:32.024Z,14.10
2018-10-02T21:24:00.251Z,14.00
2018-10-02T21:26:28.544Z,14.00
2018-10-02T21:28:56.807Z,14.00
2018-10-02T21:31:25.290Z,14.00
2018-10-02T21:33:53.476Z,14.00
2018-10-02T21:36:21.650Z,13.90
2018-10-02T21:38:49.869Z,13.90
2018-10-02T21:41:18.108Z,13.80
2018-10-02T21:43:46.471Z,13.70
2018-10-02T21:46:14.681Z,13.70
2018-10-02T21:48:42.942Z,13.60
2018-10-02T21:51:11.123Z,13.50
2018-10-02T21:53:39.458Z,13.40
2018-10-02T21:56:07.785Z,13.40
2018-10-02T21:58:36.078Z,13.40
2018-10-02T22:01:05.328Z,13.40
2018-10-02T22:03:35.588Z,13.30
2018-10-02T22:06:03.803Z,13.30
2018-10-02T22:08:32.047Z,13.20
2018-10-02T22:11:00.221Z,13.20
2018-10-02T22:13:28.643Z,13.20
2018-10-02T22:15:57.279Z,13.20
2018-10-02T22:18:25.500Z,13.10
2018-10-02T22:20:53.730Z,13.10
2018-10-02T22:23:21.930Z,13.10
2018-10-02T22:25:50.206Z,13.00
2018-10-02T22:28:18.382Z,13.00
2018-10-02T22:30:46.623Z,13.00
2018-10-02T22:33:14.878Z,13.00
2018-10-02T22:35:43.019Z,13.00
2018-10-02T22:38:11.231Z,12.90
2018-10-02T22:40:39.449Z,12.90
2018-10-02T22:43:07.683Z,12.80
2018-10-02T22:45:35.874Z,12.80
2018-10-02T22:48:04.062Z,12.80
2018-10-02T22:50:32.280Z,12.70
2018-10-02T22:53:00.487Z,12.70
2018-10-02T22:55:28.711Z,12.60
2018-10-02T22:57:56.925Z,12.60
2018-10-02T23:00:25.126Z,12.50
2018-10-02T23:02:53.339Z,12.50
2018-10-02T23:05:21.677Z,12.50
2018-10-02T23:07:49.871Z,12.50
2018-10-02T23:10:18.101Z,12.40
2018-10-02T23:12:46.295Z,12.40
2018-10-02T23:15:14.499Z,12.40
2018-10-02T23:17:42.684Z,12.40
2018-10-02T23:20:10.882Z,12.40
2018-10-02T23:22:39.108Z,12.50
2018-10-02T23:25:07.311Z,12.50
2018-10-02T23:27:35.527Z,12.50
2018-10-02T23:30:03.755Z,12.60
2018-10-02T23:32:31.956Z,12.60
2018-10-02T23:35:00.176Z,12.70
2018-10-02T23:37:28.407Z,12.70
2018-10-02T23:39:56.616Z,12.80
2018-10-02T23:42:24.808Z,12.80
2018-10-02T23:44:53.023Z,12.80
2018-10-02T23:47:21.216Z,12.70
2018-10-02T23:49:49.439Z,12.80
2018-10-02T23:52:17.642Z,12.80
2018-10-02T23:54:45.808Z,12.80
2018-10-02T23:57:13.999Z,12.70
2018-10-02T23:59:42.224Z,12.70
